sensor_id;sensor_type;location;lat;lon;timestamp;P1;durP1;ratioP1;P2;durP2;ratioP2
64795;SDS011;51229;51.980;6.722;2022-10-16T00:01:35;6.35;;;2.70;;
64795;SDS011;51229;51.980;6.722;2022-10-16T00:04:01;4.15;;;2.35;;
64795;SDS011;51229;51.980;6.722;2022-10-16T00:06:28;5.63;;;2.53;;
64795;SDS011;51229;51.980;6.722;2022-10-16T00:08:55;6.55;;;2.42;;
64795;SDS011;51229;51.980;6.722;2022-10-16T00:11:22;6.68;;;3.08;;
64795;SDS011;51229;51.980;6.722;2022-10-16T00:13:51;8.18;;;3.33;;
64795;SDS011;51229;51.980;6.722;2022-10-16T00:16:20;7.82;;;3.10;;
64795;SDS011;51229;51.980;6.722;2022-10-16T00:18:46;7.40;;;3.00;;
64795;SDS011;51229;51.980;6.722;2022-10-16T00:21:13;8.15;;;2.88;;
64795;SDS011;51229;51.980;6.722;2022-10-16T00:23:43;6.65;;;2.80;;
64795;SDS011;51229;51.980;6.722;2022-10-16T00:26:10;7.40;;;2.92;;
64795;SDS011;51229;51.980;6.722;2022-10-16T00:28:41;9.05;;;3.53;;
64795;SDS011;51229;51.980;6.722;2022-10-16T00:31:09;5.57;;;2.95;;
64795;SDS011;51229;51.980;6.722;2022-10-16T00:33:37;5.15;;;3.05;;
64795;SDS011;51229;51.980;6.722;2022-10-16T00:36:04;7.20;;;2.90;;
64795;SDS011;51229;51.980;6.722;2022-10-16T00:38:31;7.80;;;3.30;;
64795;SDS011;51229;51.980;6.722;2022-10-16T00:40:57;6.68;;;3.40;;
64795;SDS011;51229;51.980;6.722;2022-10-16T00:48:52;7.25;;;3.53;;
64795;SDS011;51229;51.980;6.722;2022-10-16T00:51:43;7.47;;;3.38;;
64795;SDS011;51229;51.980;6.722;2022-10-16T00:54:19;6.32;;;3.67;;
64795;SDS011;51229;51.980;6.722;2022-10-16T00:56:48;8.27;;;3.53;;
64795;SDS011;51229;51.980;6.722;2022-10-16T00:59:19;9.25;;;3.63;;
64795;SDS011;51229;51.980;6.722;2022-10-16T01:01:53;6.53;;;3.50;;
64795;SDS011;51229;51.980;6.722;2022-10-16T01:04:20;7.32;;;3.70;;
64795;SDS011;51229;51.980;6.722;2022-10-16T01:06:48;7.45;;;3.78;;
64795;SDS011;51229;51.980;6.722;2022-10-16T01:09:27;7.60;;;3.83;;
64795;SDS011;51229;51.980;6.722;2022-10-16T01:17:24;8.63;;;4.38;;
64795;SDS011;51229;51.980;6.722;2022-10-16T01:20:01;7.22;;;4.20;;
64795;SDS011;51229;51.980;6.722;2022-10-16T01:22:39;12.13;;;4.38;;
64795;SDS011;51229;51.980;6.722;2022-10-16T01:28:22;6.80;;;4.18;;
64795;SDS011;51229;51.980;6.722;2022-10-16T01:30:53;7.57;;;4.30;;
64795;SDS011;51229;51.980;6.722;2022-10-16T01:33:24;9.68;;;4.60;;
64795;SDS011;51229;51.980;6.722;2022-10-16T01:35:59;8.00;;;4.20;;
64795;SDS011;51229;51.980;6.722;2022-10-16T01:38:33;9.57;;;4.40;;
64795;SDS011;51229;51.980;6.722;2022-10-16T01:41:04;9.98;;;4.30;;
64795;SDS011;51229;51.980;6.722;2022-10-16T01:43:42;8.45;;;4.22;;
64795;SDS011;51229;51.980;6.722;2022-10-16T01:46:18;8.38;;;4.20;;
64795;SDS011;51229;51.980;6.722;2022-10-16T01:48:47;7.30;;;3.63;;
64795;SDS011;51229;51.980;6.722;2022-10-16T01:51:13;6.60;;;3.72;;
64795;SDS011;51229;51.980;6.722;2022-10-16T01:53:42;7.13;;;4.20;;
64795;SDS011;51229;51.980;6.722;2022-10-16T01:56:13;7.55;;;3.80;;
64795;SDS011;51229;51.980;6.722;2022-10-16T01:58:42;7.60;;;4.30;;
64795;SDS011;51229;51.980;6.722;2022-10-16T02:01:12;8.80;;;3.90;;
64795;SDS011;51229;51.980;6.722;2022-10-16T02:03:40;7.47;;;3.97;;
64795;SDS011;51229;51.980;6.722;2022-10-16T02:06:08;8.60;;;4.28;;
64795;SDS011;51229;51.980;6.722;2022-10-16T02:08:33;8.23;;;4.20;;
64795;SDS011;51229;51.980;6.722;2022-10-16T02:11:01;7.53;;;4.18;;
64795;SDS011;51229;51.980;6.722;2022-10-16T02:13:50;7.90;;;3.92;;
64795;SDS011;51229;51.980;6.722;2022-10-16T02:16:16;8.57;;;3.55;;
64795;SDS011;51229;51.980;6.722;2022-10-16T02:18:42;6.43;;;3.50;;
64795;SDS011;51229;51.980;6.722;2022-10-16T02:27:00;12.93;;;3.78;;
64795;SDS011;51229;51.980;6.722;2022-10-16T02:29:50;6.30;;;3.50;;
64795;SDS011;51229;51.980;6.722;2022-10-16T02:32:24;6.82;;;3.33;;
64795;SDS011;51229;51.980;6.722;2022-10-16T02:34:56;6.20;;;3.40;;
64795;SDS011;51229;51.980;6.722;2022-10-16T02:37:23;7.55;;;3.53;;
64795;SDS011;51229;51.980;6.722;2022-10-16T02:39:50;6.93;;;3.55;;
64795;SDS011;51229;51.980;6.722;2022-10-16T02:42:17;7.28;;;3.30;;
64795;SDS011;51229;51.980;6.722;2022-10-16T02:44:43;5.13;;;3.40;;
64795;SDS011;51229;51.980;6.722;2022-10-16T02:47:08;5.68;;;3.05;;
64795;SDS011;51229;51.980;6.722;2022-10-16T02:49:34;5.57;;;3.20;;
64795;SDS011;51229;51.980;6.722;2022-10-16T02:52:00;5.70;;;3.15;;
64795;SDS011;51229;51.980;6.722;2022-10-16T02:54:26;6.68;;;3.40;;
64795;SDS011;51229;51.980;6.722;2022-10-16T02:56:51;5.40;;;3.03;;
64795;SDS011;51229;51.980;6.722;2022-10-16T02:59:17;9.13;;;3.60;;
64795;SDS011;51229;51.980;6.722;2022-10-16T03:01:43;6.18;;;3.10;;
64795;SDS011;51229;51.980;6.722;2022-10-16T03:04:08;5.90;;;3.00;;
64795;SDS011;51229;51.980;6.722;2022-10-16T03:06:35;5.22;;;3.00;;
64795;SDS011;51229;51.980;6.722;2022-10-16T03:09:01;7.53;;;2.88;;
64795;SDS011;51229;51.980;6.722;2022-10-16T03:11:27;8.65;;;2.95;;
64795;SDS011;51229;51.980;6.722;2022-10-16T03:13:53;5.93;;;2.70;;
64795;SDS011;51229;51.980;6.722;2022-10-16T03:16:18;4.45;;;2.70;;
64795;SDS011;51229;51.980;6.722;2022-10-16T03:18:47;5.03;;;3.05;;
64795;SDS011;51229;51.980;6.722;2022-10-16T03:21:14;5.80;;;2.60;;
64795;SDS011;51229;51.980;6.722;2022-10-16T03:23:40;5.25;;;2.80;;
64795;SDS011;51229;51.980;6.722;2022-10-16T03:26:05;6.57;;;2.75;;
64795;SDS011;51229;51.980;6.722;2022-10-16T03:28:31;4.75;;;2.35;;
64795;SDS011;51229;51.980;6.722;2022-10-16T03:30:57;3.97;;;2.28;;
64795;SDS011;51229;51.980;6.722;2022-10-16T03:33:22;4.63;;;2.30;;
64795;SDS011;51229;51.980;6.722;2022-10-16T03:35:51;5.40;;;2.50;;
64795;SDS011;51229;51.980;6.722;2022-10-16T03:38:18;4.57;;;2.70;;
64795;SDS011;51229;51.980;6.722;2022-10-16T03:40:44;3.72;;;2.17;;
64795;SDS011;51229;51.980;6.722;2022-10-16T03:43:10;4.30;;;2.30;;
64795;SDS011;51229;51.980;6.722;2022-10-16T03:45:35;4.65;;;2.40;;
64795;SDS011;51229;51.980;6.722;2022-10-16T03:48:01;4.60;;;2.40;;
64795;SDS011;51229;51.980;6.722;2022-10-16T03:50:28;4.82;;;2.42;;
64795;SDS011;51229;51.980;6.722;2022-10-16T03:52:54;4.28;;;2.40;;
64795;SDS011;51229;51.980;6.722;2022-10-16T03:55:20;5.18;;;2.38;;
64795;SDS011;51229;51.980;6.722;2022-10-16T03:57:46;5.57;;;2.17;;
64795;SDS011;51229;51.980;6.722;2022-10-16T04:00:12;6.05;;;2.25;;
64795;SDS011;51229;51.980;6.722;2022-10-16T04:02:38;6.93;;;2.28;;
64795;SDS011;51229;51.980;6.722;2022-10-16T04:05:04;3.17;;;1.98;;
64795;SDS011;51229;51.980;6.722;2022-10-16T04:07:29;5.85;;;2.08;;
64795;SDS011;51229;51.980;6.722;2022-10-16T04:09:55;5.55;;;2.17;;
64795;SDS011;51229;51.980;6.722;2022-10-16T04:12:22;5.70;;;2.47;;
64795;SDS011;51229;51.980;6.722;2022-10-16T04:14:48;5.88;;;2.58;;
64795;SDS011;51229;51.980;6.722;2022-10-16T04:17:14;3.85;;;1.85;;
64795;SDS011;51229;51.980;6.722;2022-10-16T04:19:39;3.30;;;1.95;;
64795;SDS011;51229;51.980;6.722;2022-10-16T04:22:05;3.55;;;2.10;;
64795;SDS011;51229;51.980;6.722;2022-10-16T04:24:31;4.85;;;2.25;;
64795;SDS011;51229;51.980;6.722;2022-10-16T04:26:56;3.90;;;2.20;;
64795;SDS011;51229;51.980;6.722;2022-10-16T04:29:22;3.47;;;2.00;;
64795;SDS011;51229;51.980;6.722;2022-10-16T04:31:47;5.45;;;2.40;;
64795;SDS011;51229;51.980;6.722;2022-10-16T04:34:13;4.47;;;2.25;;
64795;SDS011;51229;51.980;6.722;2022-10-16T04:36:39;4.53;;;1.85;;
64795;SDS011;51229;51.980;6.722;2022-10-16T04:39:04;4.70;;;2.30;;
64795;SDS011;51229;51.980;6.722;2022-10-16T04:41:30;3.60;;;2.10;;
64795;SDS011;51229;51.980;6.722;2022-10-16T04:43:56;4.90;;;2.42;;
64795;SDS011;51229;51.980;6.722;2022-10-16T04:46:22;5.07;;;2.55;;
64795;SDS011;51229;51.980;6.722;2022-10-16T04:48:47;4.13;;;2.03;;
64795;SDS011;51229;51.980;6.722;2022-10-16T04:51:13;3.75;;;2.13;;
64795;SDS011;51229;51.980;6.722;2022-10-16T04:53:39;5.10;;;2.10;;
64795;SDS011;51229;51.980;6.722;2022-10-16T04:56:04;4.88;;;2.20;;
64795;SDS011;51229;51.980;6.722;2022-10-16T04:58:30;7.35;;;2.33;;
64795;SDS011;51229;51.980;6.722;2022-10-16T05:00:56;4.30;;;2.40;;
64795;SDS011;51229;51.980;6.722;2022-10-16T05:03:22;4.68;;;2.65;;
64795;SDS011;51229;51.980;6.722;2022-10-16T05:05:47;5.80;;;2.72;;
64795;SDS011;51229;51.980;6.722;2022-10-16T05:08:13;3.60;;;2.20;;
64795;SDS011;51229;51.980;6.722;2022-10-16T05:10:41;4.85;;;2.15;;
64795;SDS011;51229;51.980;6.722;2022-10-16T05:13:07;4.32;;;2.22;;
64795;SDS011;51229;51.980;6.722;2022-10-16T05:15:33;5.15;;;2.20;;
64795;SDS011;51229;51.980;6.722;2022-10-16T05:17:59;4.38;;;2.40;;
64795;SDS011;51229;51.980;6.722;2022-10-16T05:20:25;5.43;;;2.50;;
64795;SDS011;51229;51.980;6.722;2022-10-16T05:22:51;4.57;;;2.30;;
64795;SDS011;51229;51.980;6.722;2022-10-16T05:25:17;4.05;;;2.05;;
64795;SDS011;51229;51.980;6.722;2022-10-16T05:27:43;4.60;;;2.25;;
64795;SDS011;51229;51.980;6.722;2022-10-16T05:30:11;4.50;;;2.05;;
64795;SDS011;51229;51.980;6.722;2022-10-16T05:32:37;4.47;;;2.30;;
64795;SDS011;51229;51.980;6.722;2022-10-16T05:35:03;3.97;;;2.22;;
64795;SDS011;51229;51.980;6.722;2022-10-16T05:37:29;4.90;;;2.20;;
64795;SDS011;51229;51.980;6.722;2022-10-16T05:39:54;5.32;;;2.38;;
64795;SDS011;51229;51.980;6.722;2022-10-16T05:42:20;3.78;;;2.22;;
64795;SDS011;51229;51.980;6.722;2022-10-16T05:44:46;4.32;;;2.33;;
64795;SDS011;51229;51.980;6.722;2022-10-16T05:47:14;5.32;;;2.35;;
64795;SDS011;51229;51.980;6.722;2022-10-16T05:49:40;4.70;;;2.10;;
64795;SDS011;51229;51.980;6.722;2022-10-16T05:52:05;4.18;;;2.30;;
64795;SDS011;51229;51.980;6.722;2022-10-16T05:54:31;4.70;;;2.45;;
64795;SDS011;51229;51.980;6.722;2022-10-16T05:56:57;4.68;;;2.55;;
64795;SDS011;51229;51.980;6.722;2022-10-16T05:59:22;4.43;;;2.40;;
64795;SDS011;51229;51.980;6.722;2022-10-16T06:01:48;4.88;;;2.58;;
64795;SDS011;51229;51.980;6.722;2022-10-16T06:04:14;3.33;;;2.10;;
64795;SDS011;51229;51.980;6.722;2022-10-16T06:06:40;5.18;;;2.50;;
64795;SDS011;51229;51.980;6.722;2022-10-16T06:09:05;5.43;;;2.60;;
64795;SDS011;51229;51.980;6.722;2022-10-16T06:11:31;5.55;;;2.15;;
64795;SDS011;51229;51.980;6.722;2022-10-16T06:13:59;3.55;;;2.15;;
64795;SDS011;51229;51.980;6.722;2022-10-16T06:16:32;4.85;;;2.38;;
64795;SDS011;51229;51.980;6.722;2022-10-16T06:18:59;5.88;;;2.40;;
64795;SDS011;51229;51.980;6.722;2022-10-16T06:21:25;4.38;;;2.22;;
64795;SDS011;51229;51.980;6.722;2022-10-16T06:23:52;7.15;;;2.30;;
64795;SDS011;51229;51.980;6.722;2022-10-16T06:26:20;5.38;;;1.95;;
64795;SDS011;51229;51.980;6.722;2022-10-16T06:28:48;3.50;;;2.30;;
64795;SDS011;51229;51.980;6.722;2022-10-16T06:31:14;3.90;;;2.65;;
64795;SDS011;51229;51.980;6.722;2022-10-16T06:33:41;3.83;;;2.25;;
64795;SDS011;51229;51.980;6.722;2022-10-16T06:36:07;5.68;;;2.45;;
64795;SDS011;51229;51.980;6.722;2022-10-16T06:38:34;4.28;;;2.58;;
64795;SDS011;51229;51.980;6.722;2022-10-16T06:41:00;5.50;;;2.10;;
64795;SDS011;51229;51.980;6.722;2022-10-16T06:43:28;4.47;;;2.20;;
64795;SDS011;51229;51.980;6.722;2022-10-16T06:45:57;5.85;;;2.38;;
64795;SDS011;51229;51.980;6.722;2022-10-16T06:48:24;4.28;;;2.47;;
64795;SDS011;51229;51.980;6.722;2022-10-16T06:51:01;5.10;;;2.67;;
64795;SDS011;51229;51.980;6.722;2022-10-16T06:53:43;5.93;;;2.50;;
64795;SDS011;51229;51.980;6.722;2022-10-16T06:56:15;7.03;;;2.65;;
64795;SDS011;51229;51.980;6.722;2022-10-16T06:58:42;4.47;;;2.40;;
64795;SDS011;51229;51.980;6.722;2022-10-16T07:01:09;5.25;;;2.58;;
64795;SDS011;51229;51.980;6.722;2022-10-16T07:03:36;5.32;;;2.80;;
64795;SDS011;51229;51.980;6.722;2022-10-16T07:06:03;6.28;;;3.03;;
64795;SDS011;51229;51.980;6.722;2022-10-16T07:08:34;4.18;;;2.75;;
64795;SDS011;51229;51.980;6.722;2022-10-16T07:11:01;7.88;;;3.30;;
64795;SDS011;51229;51.980;6.722;2022-10-16T07:13:28;9.73;;;3.15;;
64795;SDS011;51229;51.980;6.722;2022-10-16T07:15:54;6.28;;;3.33;;
64795;SDS011;51229;51.980;6.722;2022-10-16T07:18:19;7.10;;;3.55;;
64795;SDS011;51229;51.980;6.722;2022-10-16T07:20:45;5.80;;;3.20;;
64795;SDS011;51229;51.980;6.722;2022-10-16T07:23:11;5.78;;;3.10;;
64795;SDS011;51229;51.980;6.722;2022-10-16T07:25:37;4.78;;;2.70;;
64795;SDS011;51229;51.980;6.722;2022-10-16T07:28:02;6.53;;;2.50;;
64795;SDS011;51229;51.980;6.722;2022-10-16T07:30:28;5.95;;;2.42;;
64795;SDS011;51229;51.980;6.722;2022-10-16T07:32:54;3.72;;;2.20;;
64795;SDS011;51229;51.980;6.722;2022-10-16T07:35:19;4.00;;;2.05;;
64795;SDS011;51229;51.980;6.722;2022-10-16T07:37:45;5.20;;;2.40;;
64795;SDS011;51229;51.980;6.722;2022-10-16T07:40:11;5.88;;;2.28;;
64795;SDS011;51229;51.980;6.722;2022-10-16T07:42:37;4.85;;;2.20;;
64795;SDS011;51229;51.980;6.722;2022-10-16T07:45:03;7.05;;;2.40;;
64795;SDS011;51229;51.980;6.722;2022-10-16T07:47:29;4.95;;;2.30;;
64795;SDS011;51229;51.980;6.722;2022-10-16T07:49:55;5.75;;;3.10;;
64795;SDS011;51229;51.980;6.722;2022-10-16T07:52:21;4.60;;;2.20;;
64795;SDS011;51229;51.980;6.722;2022-10-16T07:54:46;5.20;;;2.13;;
64795;SDS011;51229;51.980;6.722;2022-10-16T07:57:12;4.60;;;2.10;;
64795;SDS011;51229;51.980;6.722;2022-10-16T07:59:44;4.20;;;2.10;;
64795;SDS011;51229;51.980;6.722;2022-10-16T08:02:12;6.78;;;2.28;;
64795;SDS011;51229;51.980;6.722;2022-10-16T08:04:38;4.25;;;2.53;;
64795;SDS011;51229;51.980;6.722;2022-10-16T08:07:04;3.88;;;2.22;;
64795;SDS011;51229;51.980;6.722;2022-10-16T08:09:29;3.97;;;2.20;;
64795;SDS011;51229;51.980;6.722;2022-10-16T08:11:55;4.13;;;2.45;;
64795;SDS011;51229;51.980;6.722;2022-10-16T08:14:20;5.90;;;1.98;;
64795;SDS011;51229;51.980;6.722;2022-10-16T08:16:46;4.50;;;1.80;;
64795;SDS011;51229;51.980;6.722;2022-10-16T08:19:12;4.90;;;1.88;;
64795;SDS011;51229;51.980;6.722;2022-10-16T08:21:38;3.95;;;2.00;;
64795;SDS011;51229;51.980;6.722;2022-10-16T08:24:03;5.53;;;1.90;;
64795;SDS011;51229;51.980;6.722;2022-10-16T08:26:29;4.50;;;1.70;;
64795;SDS011;51229;51.980;6.722;2022-10-16T08:28:55;5.43;;;2.33;;
64795;SDS011;51229;51.980;6.722;2022-10-16T08:31:21;3.20;;;1.58;;
64795;SDS011;51229;51.980;6.722;2022-10-16T08:33:47;4.57;;;1.70;;
64795;SDS011;51229;51.980;6.722;2022-10-16T08:36:13;4.65;;;2.05;;
64795;SDS011;51229;51.980;6.722;2022-10-16T08:38:41;4.10;;;1.40;;
64795;SDS011;51229;51.980;6.722;2022-10-16T08:46:40;4.38;;;1.52;;
64795;SDS011;51229;51.980;6.722;2022-10-16T08:49:11;3.85;;;1.88;;
64795;SDS011;51229;51.980;6.722;2022-10-16T08:51:40;6.95;;;2.42;;
64795;SDS011;51229;51.980;6.722;2022-10-16T08:56:55;5.63;;;2.20;;
64795;SDS011;51229;51.980;6.722;2022-10-16T08:59:22;6.10;;;2.20;;
64795;SDS011;51229;51.980;6.722;2022-10-16T09:01:49;6.50;;;2.50;;
64795;SDS011;51229;51.980;6.722;2022-10-16T09:07:16;8.52;;;3.35;;
64795;SDS011;51229;51.980;6.722;2022-10-16T09:12:48;10.75;;;5.63;;
64795;SDS011;51229;51.980;6.722;2022-10-16T09:15:32;10.23;;;5.85;;
64795;SDS011;51229;51.980;6.722;2022-10-16T09:20:49;11.32;;;7.38;;
64795;SDS011;51229;51.980;6.722;2022-10-16T09:23:27;10.40;;;6.38;;
64795;SDS011;51229;51.980;6.722;2022-10-16T09:25:55;11.73;;;6.38;;
64795;SDS011;51229;51.980;6.722;2022-10-16T09:28:23;9.88;;;5.90;;
64795;SDS011;51229;51.980;6.722;2022-10-16T09:30:49;10.23;;;6.10;;
64795;SDS011;51229;51.980;6.722;2022-10-16T09:33:16;9.32;;;5.68;;
64795;SDS011;51229;51.980;6.722;2022-10-16T09:38:25;9.20;;;5.30;;
64795;SDS011;51229;51.980;6.722;2022-10-16T09:40:50;7.50;;;4.28;;
64795;SDS011;51229;51.980;6.722;2022-10-16T09:45:57;7.95;;;4.30;;
64795;SDS011;51229;51.980;6.722;2022-10-16T09:48:25;7.45;;;4.28;;
64795;SDS011;51229;51.980;6.722;2022-10-16T09:51:03;8.15;;;4.03;;
64795;SDS011;51229;51.980;6.722;2022-10-16T09:53:43;7.05;;;3.55;;
64795;SDS011;51229;51.980;6.722;2022-10-16T09:56:11;8.43;;;3.75;;
64795;SDS011;51229;51.980;6.722;2022-10-16T09:58:49;6.60;;;3.53;;
64795;SDS011;51229;51.980;6.722;2022-10-16T10:01:20;6.50;;;3.53;;
64795;SDS011;51229;51.980;6.722;2022-10-16T10:03:48;7.90;;;3.53;;
64795;SDS011;51229;51.980;6.722;2022-10-16T10:06:16;5.65;;;2.80;;
64795;SDS011;51229;51.980;6.722;2022-10-16T10:08:59;6.90;;;2.80;;
64795;SDS011;51229;51.980;6.722;2022-10-16T10:11:40;6.32;;;2.63;;
64795;SDS011;51229;51.980;6.722;2022-10-16T10:14:30;4.70;;;2.50;;
64795;SDS011;51229;51.980;6.722;2022-10-16T10:17:28;6.78;;;2.50;;
64795;SDS011;51229;51.980;6.722;2022-10-16T10:19:55;4.53;;;2.10;;
64795;SDS011;51229;51.980;6.722;2022-10-16T10:22:44;7.18;;;2.58;;
64795;SDS011;51229;51.980;6.722;2022-10-16T10:30:30;4.15;;;1.85;;
64795;SDS011;51229;51.980;6.722;2022-10-16T10:36:02;4.25;;;1.77;;
64795;SDS011;51229;51.980;6.722;2022-10-16T10:38:58;6.05;;;2.17;;
64795;SDS011;51229;51.980;6.722;2022-10-16T10:44:20;5.65;;;2.33;;
64795;SDS011;51229;51.980;6.722;2022-10-16T10:47:27;7.10;;;2.08;;
64795;SDS011;51229;51.980;6.722;2022-10-16T10:50:12;5.28;;;2.03;;
64795;SDS011;51229;51.980;6.722;2022-10-16T10:52:50;8.40;;;2.03;;
64795;SDS011;51229;51.980;6.722;2022-10-16T10:55:28;4.67;;;1.93;;
64795;SDS011;51229;51.980;6.722;2022-10-16T11:09:33;7.72;;;2.13;;
64795;SDS011;51229;51.980;6.722;2022-10-16T11:12:14;8.02;;;1.95;;
64795;SDS011;51229;51.980;6.722;2022-10-16T11:17:51;5.47;;;1.75;;
64795;SDS011;51229;51.980;6.722;2022-10-16T11:20:25;6.15;;;1.92;;
64795;SDS011;51229;51.980;6.722;2022-10-16T11:22:56;5.80;;;2.00;;
64795;SDS011;51229;51.980;6.722;2022-10-16T11:27:58;8.07;;;1.80;;
64795;SDS011;51229;51.980;6.722;2022-10-16T11:30:57;7.45;;;1.95;;
64795;SDS011;51229;51.980;6.722;2022-10-16T11:33:31;5.78;;;1.90;;
64795;SDS011;51229;51.980;6.722;2022-10-16T11:40:56;7.85;;;1.80;;
64795;SDS011;51229;51.980;6.722;2022-10-16T11:43:29;8.95;;;2.50;;
64795;SDS011;51229;51.980;6.722;2022-10-16T11:46:04;6.13;;;1.83;;
64795;SDS011;51229;51.980;6.722;2022-10-16T11:48:51;5.30;;;1.63;;
64795;SDS011;51229;51.980;6.722;2022-10-16T11:51:33;7.75;;;1.98;;
64795;SDS011;51229;51.980;6.722;2022-10-16T11:56:38;5.18;;;1.70;;
64795;SDS011;51229;51.980;6.722;2022-10-16T11:59:18;6.97;;;1.92;;
64795;SDS011;51229;51.980;6.722;2022-10-16T12:02:25;6.18;;;1.50;;
64795;SDS011;51229;51.980;6.722;2022-10-16T12:07:50;6.35;;;1.77;;
64795;SDS011;51229;51.980;6.722;2022-10-16T12:10:26;6.50;;;1.80;;
64795;SDS011;51229;51.980;6.722;2022-10-16T12:12:54;7.82;;;2.13;;
64795;SDS011;51229;51.980;6.722;2022-10-16T12:15:25;6.88;;;1.63;;
64795;SDS011;51229;51.980;6.722;2022-10-16T12:17:53;5.78;;;1.92;;
64795;SDS011;51229;51.980;6.722;2022-10-16T12:22:55;5.95;;;1.70;;
64795;SDS011;51229;51.980;6.722;2022-10-16T12:25:34;8.30;;;1.92;;
64795;SDS011;51229;51.980;6.722;2022-10-16T12:28:26;7.88;;;1.75;;
64795;SDS011;51229;51.980;6.722;2022-10-16T12:33:27;5.47;;;1.63;;
64795;SDS011;51229;51.980;6.722;2022-10-16T12:36:00;8.38;;;1.92;;
64795;SDS011;51229;51.980;6.722;2022-10-16T12:38:33;7.50;;;1.88;;
64795;SDS011;51229;51.980;6.722;2022-10-16T12:41:10;7.57;;;1.70;;
64795;SDS011;51229;51.980;6.722;2022-10-16T12:43:41;7.30;;;1.80;;
64795;SDS011;51229;51.980;6.722;2022-10-16T12:48:33;6.22;;;1.90;;
64795;SDS011;51229;51.980;6.722;2022-10-16T12:51:09;7.40;;;2.17;;
64795;SDS011;51229;51.980;6.722;2022-10-16T12:53:36;6.03;;;1.80;;
64795;SDS011;51229;51.980;6.722;2022-10-16T12:56:04;6.63;;;1.83;;
64795;SDS011;51229;51.980;6.722;2022-10-16T12:58:49;4.53;;;1.27;;
64795;SDS011;51229;51.980;6.722;2022-10-16T13:07:28;6.40;;;1.75;;
64795;SDS011;51229;51.980;6.722;2022-10-16T13:10:10;6.97;;;1.52;;
64795;SDS011;51229;51.980;6.722;2022-10-16T13:15:51;6.85;;;2.28;;
64795;SDS011;51229;51.980;6.722;2022-10-16T13:18:44;7.25;;;1.90;;
64795;SDS011;51229;51.980;6.722;2022-10-16T13:21:30;6.35;;;1.80;;
64795;SDS011;51229;51.980;6.722;2022-10-16T13:24:10;9.18;;;2.00;;
64795;SDS011;51229;51.980;6.722;2022-10-16T13:26:57;7.35;;;1.60;;
64795;SDS011;51229;51.980;6.722;2022-10-16T13:29:29;8.40;;;1.88;;
64795;SDS011;51229;51.980;6.722;2022-10-16T13:31:57;5.13;;;1.53;;
64795;SDS011;51229;51.980;6.722;2022-10-16T13:34:23;5.78;;;1.50;;
64795;SDS011;51229;51.980;6.722;2022-10-16T13:36:51;6.25;;;1.60;;
64795;SDS011;51229;51.980;6.722;2022-10-16T13:39:25;5.75;;;1.73;;
64795;SDS011;51229;51.980;6.722;2022-10-16T13:42:00;7.22;;;1.55;;
64795;SDS011;51229;51.980;6.722;2022-10-16T13:44:28;4.20;;;1.30;;
64795;SDS011;51229;51.980;6.722;2022-10-16T13:47:00;5.97;;;1.33;;
64795;SDS011;51229;51.980;6.722;2022-10-16T13:49:27;6.60;;;1.80;;
64795;SDS011;51229;51.980;6.722;2022-10-16T13:51:56;5.97;;;1.80;;
64795;SDS011;51229;51.980;6.722;2022-10-16T13:54:25;7.47;;;1.73;;
64795;SDS011;51229;51.980;6.722;2022-10-16T13:56:51;5.35;;;1.70;;
64795;SDS011;51229;51.980;6.722;2022-10-16T13:59:22;6.60;;;1.80;;
64795;SDS011;51229;51.980;6.722;2022-10-16T14:01:57;4.20;;;1.30;;
64795;SDS011;51229;51.980;6.722;2022-10-16T14:04:25;6.78;;;1.75;;
64795;SDS011;51229;51.980;6.722;2022-10-16T14:06:54;6.13;;;1.55;;
64795;SDS011;51229;51.980;6.722;2022-10-16T14:09:24;7.65;;;1.80;;
64795;SDS011;51229;51.980;6.722;2022-10-16T14:11:56;6.95;;;2.13;;
64795;SDS011;51229;51.980;6.722;2022-10-16T14:14:31;8.23;;;1.83;;
64795;SDS011;51229;51.980;6.722;2022-10-16T14:17:04;5.20;;;1.50;;
64795;SDS011;51229;51.980;6.722;2022-10-16T14:19:30;5.70;;;1.60;;
64795;SDS011;51229;51.980;6.722;2022-10-16T14:21:57;5.38;;;1.65;;
64795;SDS011;51229;51.980;6.722;2022-10-16T14:24:34;6.85;;;1.90;;
64795;SDS011;51229;51.980;6.722;2022-10-16T14:27:00;7.10;;;1.20;;
64795;SDS011;51229;51.980;6.722;2022-10-16T14:29:28;8.07;;;1.75;;
64795;SDS011;51229;51.980;6.722;2022-10-16T14:36:52;6.07;;;1.50;;
64795;SDS011;51229;51.980;6.722;2022-10-16T14:39:20;5.82;;;1.70;;
64795;SDS011;51229;51.980;6.722;2022-10-16T14:41:48;9.35;;;1.90;;
64795;SDS011;51229;51.980;6.722;2022-10-16T14:44:17;5.97;;;1.60;;
64795;SDS011;51229;51.980;6.722;2022-10-16T14:46:44;5.30;;;1.55;;
64795;SDS011;51229;51.980;6.722;2022-10-16T14:51:37;5.63;;;1.50;;
64795;SDS011;51229;51.980;6.722;2022-10-16T14:54:03;6.30;;;1.70;;
64795;SDS011;51229;51.980;6.722;2022-10-16T14:56:30;4.63;;;1.50;;
64795;SDS011;51229;51.980;6.722;2022-10-16T14:58:59;5.93;;;1.35;;
64795;SDS011;51229;51.980;6.722;2022-10-16T15:01:26;8.93;;;1.80;;
64795;SDS011;51229;51.980;6.722;2022-10-16T15:03:52;9.02;;;1.80;;
64795;SDS011;51229;51.980;6.722;2022-10-16T15:06:19;7.00;;;1.75;;
64795;SDS011;51229;51.980;6.722;2022-10-16T15:08:46;6.57;;;2.03;;
64795;SDS011;51229;51.980;6.722;2022-10-16T15:11:12;4.75;;;1.90;;
64795;SDS011;51229;51.980;6.722;2022-10-16T15:13:40;7.68;;;2.33;;
64795;SDS011;51229;51.980;6.722;2022-10-16T15:16:08;6.60;;;3.15;;
64795;SDS011;51229;51.980;6.722;2022-10-16T15:18:36;6.47;;;2.42;;
64795;SDS011;51229;51.980;6.722;2022-10-16T15:21:02;12.65;;;4.70;;
64795;SDS011;51229;51.980;6.722;2022-10-16T15:23:28;9.38;;;4.03;;
64795;SDS011;51229;51.980;6.722;2022-10-16T15:25:54;7.55;;;3.38;;
64795;SDS011;51229;51.980;6.722;2022-10-16T15:28:21;9.70;;;3.30;;
64795;SDS011;51229;51.980;6.722;2022-10-16T15:30:52;3.33;;;1.60;;
64795;SDS011;51229;51.980;6.722;2022-10-16T15:33:23;7.50;;;2.25;;
64795;SDS011;51229;51.980;6.722;2022-10-16T15:35:52;6.72;;;2.08;;
64795;SDS011;51229;51.980;6.722;2022-10-16T15:38:19;8.18;;;2.28;;
64795;SDS011;51229;51.980;6.722;2022-10-16T15:40:46;7.13;;;2.53;;
64795;SDS011;51229;51.980;6.722;2022-10-16T15:43:13;5.90;;;1.92;;
64795;SDS011;51229;51.980;6.722;2022-10-16T15:45:39;6.47;;;2.00;;
64795;SDS011;51229;51.980;6.722;2022-10-16T15:48:05;7.63;;;2.63;;
64795;SDS011;51229;51.980;6.722;2022-10-16T15:50:31;8.23;;;2.60;;
64795;SDS011;51229;51.980;6.722;2022-10-16T15:52:57;9.43;;;3.10;;
64795;SDS011;51229;51.980;6.722;2022-10-16T15:55:23;8.80;;;3.85;;
64795;SDS011;51229;51.980;6.722;2022-10-16T15:57:49;11.15;;;4.10;;
64795;SDS011;51229;51.980;6.722;2022-10-16T16:00:17;7.38;;;3.58;;
64795;SDS011;51229;51.980;6.722;2022-10-16T16:02:50;10.95;;;3.65;;
64795;SDS011;51229;51.980;6.722;2022-10-16T16:05:17;7.15;;;3.35;;
64795;SDS011;51229;51.980;6.722;2022-10-16T16:07:43;9.00;;;3.72;;
64795;SDS011;51229;51.980;6.722;2022-10-16T16:10:09;9.68;;;4.60;;
64795;SDS011;51229;51.980;6.722;2022-10-16T16:12:36;9.63;;;4.93;;
64795;SDS011;51229;51.980;6.722;2022-10-16T16:15:03;13.05;;;7.68;;
64795;SDS011;51229;51.980;6.722;2022-10-16T16:17:30;19.05;;;9.30;;
64795;SDS011;51229;51.980;6.722;2022-10-16T16:19:57;8.55;;;4.32;;
64795;SDS011;51229;51.980;6.722;2022-10-16T16:22:22;5.97;;;2.20;;
64795;SDS011;51229;51.980;6.722;2022-10-16T16:24:48;7.70;;;3.00;;
64795;SDS011;51229;51.980;6.722;2022-10-16T16:27:14;6.55;;;3.20;;
64795;SDS011;51229;51.980;6.722;2022-10-16T16:29:40;6.20;;;3.60;;
64795;SDS011;51229;51.980;6.722;2022-10-16T16:32:06;8.63;;;4.53;;
64795;SDS011;51229;51.980;6.722;2022-10-16T16:34:31;20.80;;;12.30;;
64795;SDS011;51229;51.980;6.722;2022-10-16T16:36:57;25.55;;;14.90;;
64795;SDS011;51229;51.980;6.722;2022-10-16T16:39:23;27.30;;;16.23;;
64795;SDS011;51229;51.980;6.722;2022-10-16T16:41:49;25.48;;;16.15;;
64795;SDS011;51229;51.980;6.722;2022-10-16T16:44:15;26.77;;;17.83;;
64795;SDS011;51229;51.980;6.722;2022-10-16T16:46:42;28.00;;;18.42;;